Time;durP1;ratioP1;P1;durP2;ratioP2;P2;SDS_P1;SDS_P2;PMS_P1;PMS_P2;Temp;Humidity;BMP_temperature;BMP_pressure;BME280_temperature;BME280_humidity;BME280_pressure;Samples;Min_cycle;Max_cycle;Signal;HPM_P1;HPM_P2
2022/08/04 00:02:16;;;;;;;3.03;2.83;;;;;;;;;;5073740;28;20556;-74
2022/08/04 00:04:45;;;;;;;3.40;2.70;;;;;;;;;;5072144;28;20632;-74
2022/08/04 00:07:17;;;;;;;25.80;4.63;;;;;;;;;;5073788;28;20230;-74
2022/08/04 00:09:48;;;;;;;8.63;3.60;;;;;;;;;;5072736;28;20227;-74
2022/08/04 00:12:17;;;;;;;3.67;2.63;;;;;;;;;;5073876;28;20196;-74
2022/08/04 00:14:48;;;;;;;2.90;2.70;;;;;;;;;;5073704;28;20204;-74
2022/08/04 00:17:20;;;;;;;3.13;2.60;;;;;;;;;;5073807;28;20606;-74
2022/08/04 00:19:49;;;;;;;8.77;3.63;;;;;;;;;;5072119;28;20192;-74
2022/08/04 00:22:18;;;;;;;4.37;3.07;;;;;;;;;;5072404;28;20232;-74
2022/08/04 00:24:45;;;;;;;3.20;2.90;;;;;;;;;;5086031;28;20196;-74
2022/08/04 00:27:12;;;;;;;3.60;3.30;;;;;;;;;;5075534;28;20740;-74
2022/08/04 00:29:40;;;;;;;2.70;2.50;;;;;;;;;;5085528;28;20243;-74
2022/08/04 00:32:08;;;;;;;5.13;2.93;;;;;;;;;;5093148;28;20204;-74
2022/08/04 00:34:36;;;;;;;3.50;3.17;;;;;;;;;;5081985;28;20197;-74
2022/08/04 00:37:05;;;;;;;4.83;3.87;;;;;;;;;;5072239;28;20770;-74
2022/08/04 00:39:32;;;;;;;4.53;2.93;;;;;;;;;;5071980;28;20201;-74
2022/08/04 00:42:14;;;;;;;3.90;2.90;;;;;;;;;;5072190;28;20201;-74
2022/08/04 00:44:51;;;;;;;3.00;2.80;;;;;;;;;;5071564;28;20217;-75
2022/08/04 00:47:28;;;;;;;4.03;3.17;;;;;;;;;;5072716;28;20663;-74
2022/08/04 00:50:08;;;;;;;4.87;3.10;;;;;;;;;;5071452;28;20197;-74
2022/08/04 00:52:48;;;;;;;3.00;2.70;;;;;;;;;;5072366;28;20200;-74
2022/08/04 00:55:23;;;;;;;4.63;3.20;;;;;;;;;;5089330;28;20220;-74
2022/08/04 00:58:01;;;;;;;3.33;3.13;;;;;;;;;;5092394;28;20249;-74
2022/08/04 01:00:29;;;;;;;3.10;2.90;;;;;;;;;;5073550;28;20207;-75
2022/08/04 01:03:09;;;;;;;3.53;2.87;;;;;;;;;;5071771;28;20216;-75
2022/08/04 01:05:57;;;;;;;3.00;2.80;;;;;;;;;;5081217;28;20295;-74
2022/08/04 01:08:42;;;;;;;3.07;2.40;;;;;;;;;;5076046;28;20605;-75
2022/08/04 01:11:22;;;;;;;3.13;2.93;;;;;;;;;;5071857;28;20215;-75
2022/08/04 01:13:59;;;;;;;3.13;2.83;;;;;;;;;;5089415;28;20204;-75
2022/08/04 01:16:27;;;;;;;2.90;2.70;;;;;;;;;;5092334;28;20220;-74
2022/08/04 01:18:59;;;;;;;3.03;2.80;;;;;;;;;;5091436;28;20192;-74
2022/08/04 01:22:02;;;;;;;4.47;3.00;;;;;;;;;;5092302;28;20689;-74
2022/08/04 01:25:00;;;;;;;4.90;2.70;;;;;;;;;;5055444;28;20196;-74
2022/08/04 01:27:31;;;;;;;9.10;3.00;;;;;;;;;;5068602;28;20308;-75
2022/08/04 01:30:01;;;;;;;3.87;3.37;;;;;;;;;;5092448;28;20208;-74
2022/08/04 01:32:32;;;;;;;2.80;2.60;;;;;;;;;;5081833;28;20255;-74
2022/08/04 01:35:03;;;;;;;3.33;3.07;;;;;;;;;;5070737;28;20205;-74
2022/08/04 01:37:41;;;;;;;3.00;2.80;;;;;;;;;;5071365;28;20228;-75
2022/08/04 01:40:08;;;;;;;3.00;2.80;;;;;;;;;;5071820;28;20717;-74
2022/08/04 01:42:36;;;;;;;3.83;2.80;;;;;;;;;;5071864;28;20571;-74
2022/08/04 01:45:07;;;;;;;2.70;2.50;;;;;;;;;;5090296;28;20196;-74
2022/08/04 01:47:35;;;;;;;3.93;3.20;;;;;;;;;;5076415;28;20196;-75
2022/08/04 01:50:06;;;;;;;2.90;2.70;;;;;;;;;;5071684;28;20197;-75
2022/08/04 01:52:34;;;;;;;4.70;2.80;;;;;;;;;;5070346;28;20201;-74
2022/08/04 01:55:04;;;;;;;3.50;2.90;;;;;;;;;;5071067;28;20193;-74
2022/08/04 01:57:32;;;;;;;5.17;3.23;;;;;;;;;;5071778;28;20228;-74
2022/08/04 02:00:00;;;;;;;3.20;2.90;;;;;;;;;;5070403;28;20567;-74
2022/08/04 02:02:29;;;;;;;6.10;2.67;;;;;;;;;;5070910;28;20615;-74
2022/08/04 02:04:56;;;;;;;4.90;2.50;;;;;;;;;;5070691;28;20200;-74
2022/08/04 02:07:43;;;;;;;3.13;2.60;;;;;;;;;;5071789;28;20204;-74
2022/08/04 02:10:20;;;;;;;3.03;2.73;;;;;;;;;;5083018;28;20196;-74
2022/08/04 02:12:53;;;;;;;3.63;2.83;;;;;;;;;;5091670;28;20708;-74
2022/08/04 02:15:27;;;;;;;3.20;3.00;;;;;;;;;;5092356;28;20220;-74
2022/08/04 02:18:01;;;;;;;3.27;2.97;;;;;;;;;;5091738;28;20200;-74
2022/08/04 02:20:33;;;;;;;3.13;2.87;;;;;;;;;;5091897;28;20196;-74
2022/08/04 02:23:02;;;;;;;3.70;3.40;;;;;;;;;;5092230;28;20227;-74
2022/08/04 02:25:34;;;;;;;3.80;3.07;;;;;;;;;;5090729;28;20192;-75
2022/08/04 02:28:18;;;;;;;3.93;2.87;;;;;;;;;;5091272;28;20224;-75
2022/08/04 02:30:51;;;;;;;4.53;2.70;;;;;;;;;;5076241;28;20201;-75
2022/08/04 02:33:23;;;;;;;3.57;3.27;;;;;;;;;;5071776;28;20193;-75
2022/08/04 02:36:01;;;;;;;3.33;3.00;;;;;;;;;;5071102;28;20224;-74
2022/08/04 02:38:34;;;;;;;4.13;3.33;;;;;;;;;;5071313;28;20349;-74
2022/08/04 02:41:01;;;;;;;3.17;2.97;;;;;;;;;;5071362;28;20674;-74
2022/08/04 02:43:30;;;;;;;3.60;3.30;;;;;;;;;;5071398;28;20200;-74
2022/08/04 02:45:57;;;;;;;3.33;3.03;;;;;;;;;;5069886;28;20219;-74
2022/08/04 02:48:27;;;;;;;6.33;3.27;;;;;;;;;;5084143;28;20279;-74
2022/08/04 02:50:54;;;;;;;3.47;3.17;;;;;;;;;;5089381;28;20279;-74
2022/08/04 02:53:22;;;;;;;4.27;2.67;;;;;;;;;;5087669;28;20601;-75
2022/08/04 02:55:51;;;;;;;2.70;2.50;;;;;;;;;;5078629;28;20203;-74
2022/08/04 02:58:20;;;;;;;2.77;2.57;;;;;;;;;;5087583;28;20613;-74
2022/08/04 03:00:49;;;;;;;3.10;2.90;;;;;;;;;;5077472;28;20682;-75
2022/08/04 03:03:21;;;;;;;6.93;3.50;;;;;;;;;;5076358;28;20197;-75
2022/08/04 03:06:03;;;;;;;3.10;2.90;;;;;;;;;;5090320;28;20200;-74
2022/08/04 03:09:11;;;;;;;3.83;3.53;;;;;;;;;;5089576;28;20208;-75
2022/08/04 03:11:56;;;;;;;4.53;2.73;;;;;;;;;;5013688;28;20815;-75
2022/08/04 03:14:49;;;;;;;3.43;3.20;;;;;;;;;;5074723;28;20224;-75
2022/08/04 03:17:47;;;;;;;4.10;3.20;;;;;;;;;;5095078;28;20648;-75
2022/08/04 03:20:50;;;;;;;8.00;3.33;;;;;;;;;;5072998;28;20628;-75
2022/08/04 03:23:33;;;;;;;3.00;2.80;;;;;;;;;;5094776;28;20196;-75
2022/08/04 03:26:24;;;;;;;3.50;3.20;;;;;;;;;;5095122;28;20204;-75
2022/08/04 03:29:28;;;;;;;3.40;3.10;;;;;;;;;;5094888;28;20191;-75
2022/08/04 03:32:09;;;;;;;3.70;2.70;;;;;;;;;;5094858;28;20199;-74
2022/08/04 03:34:54;;;;;;;3.33;3.13;;;;;;;;;;5084935;28;20258;-75
2022/08/04 03:37:39;;;;;;;3.23;3.00;;;;;;;;;;5091385;28;20224;-75
2022/08/04 03:40:28;;;;;;;3.00;2.80;;;;;;;;;;5074033;28;20604;-74
2022/08/04 03:43:19;;;;;;;3.60;3.30;;;;;;;;;;5075727;28;20188;-76
2022/08/04 03:46:14;;;;;;;189.07;22.33;;;;;;;;;;5084485;28;20207;-75
2022/08/04 03:49:08;;;;;;;85.50;13.83;;;;;;;;;;5081738;28;20196;-76
2022/08/04 03:54:38;;;;;;;32.53;6.83;;;;;;;;;;5074797;28;20296;-74
2022/08/04 03:57:35;;;;;;;13.63;3.60;;;;;;;;;;5072860;28;20308;-76
2022/08/04 04:00:13;;;;;;;3.33;3.13;;;;;;;;;;5072755;28;20258;-76
2022/08/04 04:03:02;;;;;;;5.73;3.27;;;;;;;;;;5072983;28;20291;-77
2022/08/04 04:05:55;;;;;;;5.30;3.50;;;;;;;;;;5074250;28;20219;-76
2022/08/04 04:08:46;;;;;;;4.30;3.20;;;;;;;;;;5084684;28;20360;-76
2022/08/04 04:11:24;;;;;;;3.03;2.83;;;;;;;;;;5076221;28;20200;-76
2022/08/04 04:14:23;;;;;;;3.30;3.00;;;;;;;;;;5082970;28;20200;-76
2022/08/04 04:17:05;;;;;;;3.63;3.33;;;;;;;;;;5073007;28;20217;-76
2022/08/04 04:20:00;;;;;;;8.57;3.80;;;;;;;;;;5072599;28;20288;-80
2022/08/04 04:22:33;;;;;;;4.47;3.10;;;;;;;;;;5071528;28;20567;-80
2022/08/04 04:25:10;;;;;;;4.20;3.80;;;;;;;;;;5075344;28;20197;-80
2022/08/04 04:27:43;;;;;;;10.87;3.80;;;;;;;;;;5071501;28;20225;-79
2022/08/04 04:30:16;;;;;;;3.77;2.97;;;;;;;;;;5072199;28;20216;-80
2022/08/04 04:33:03;;;;;;;3.90;3.60;;;;;;;;;;5072396;28;20545;-80
2022/08/04 04:35:38;;;;;;;10.70;4.27;;;;;;;;;;5088098;28;20276;-82
2022/08/04 04:38:29;;;;;;;5.77;3.17;;;;;;;;;;5072468;28;20327;-81
2022/08/04 04:41:05;;;;;;;3.83;3.00;;;;;;;;;;5067026;28;20197;-81
2022/08/04 04:44:00;;;;;;;4.37;3.23;;;;;;;;;;5072182;28;20201;-82
2022/08/04 04:46:37;;;;;;;3.13;2.93;;;;;;;;;;5072311;28;20306;-82
2022/08/04 04:49:18;;;;;;;5.97;3.00;;;;;;;;;;5091105;28;20199;-82
2022/08/04 04:51:49;;;;;;;5.73;3.47;;;;;;;;;;5077310;28;20200;-82
2022/08/04 04:54:25;;;;;;;4.17;3.37;;;;;;;;;;5071807;28;20612;-83
2022/08/04 04:57:00;;;;;;;5.47;3.10;;;;;;;;;;5083306;28;20666;-83
2022/08/04 04:59:32;;;;;;;7.90;4.03;;;;;;;;;;5072394;28;20208;-85
2022/08/04 05:02:14;;;;;;;7.10;3.10;;;;;;;;;;5072014;28;20193;-79
2022/08/04 05:05:06;;;;;;;10.67;3.83;;;;;;;;;;5071494;28;20223;-79
2022/08/04 05:08:05;;;;;;;3.27;3.07;;;;;;;;;;5071732;28;20246;-79
2022/08/04 05:10:51;;;;;;;3.00;2.73;;;;;;;;;;5054904;28;20276;-79
2022/08/04 05:13:34;;;;;;;3.27;2.30;;;;;;;;;;5077349;28;20207;-79
2022/08/04 05:16:05;;;;;;;2.87;2.60;;;;;;;;;;5093045;28;20200;-79
2022/08/04 05:18:36;;;;;;;2.90;2.70;;;;;;;;;;5092270;28;20223;-79
2022/08/04 05:21:11;;;;;;;3.60;2.70;;;;;;;;;;5092629;28;20200;-79
2022/08/04 05:23:39;;;;;;;2.83;2.63;;;;;;;;;;5081121;28;20192;-79
2022/08/04 05:26:08;;;;;;;3.70;3.17;;;;;;;;;;5084073;28;20716;-79
2022/08/04 05:28:39;;;;;;;3.10;2.80;;;;;;;;;;5079867;28;20232;-79
2022/08/04 05:31:11;;;;;;;3.73;3.23;;;;;;;;;;5071294;28;20228;-80
2022/08/04 05:33:45;;;;;;;3.93;3.13;;;;;;;;;;5074354;28;20567;-79
2022/08/04 05:36:16;;;;;;;4.40;3.17;;;;;;;;;;5090959;28;20195;-79
2022/08/04 05:38:43;;;;;;;3.13;2.83;;;;;;;;;;5080810;28;20251;-79
2022/08/04 05:41:10;;;;;;;3.87;3.57;;;;;;;;;;5071438;28;20210;-79
2022/08/04 05:43:40;;;;;;;3.27;3.07;;;;;;;;;;5078855;28;20201;-79
2022/08/04 05:46:07;;;;;;;3.50;3.20;;;;;;;;;;5078792;28;20196;-79
2022/08/04 05:48:34;;;;;;;3.30;3.07;;;;;;;;;;5070275;28;20232;-80
2022/08/04 05:51:03;;;;;;;2.73;2.50;;;;;;;;;;5071723;28;20212;-79
2022/08/04 05:53:30;;;;;;;3.07;2.77;;;;;;;;;;5070679;28;20200;-79
2022/08/04 05:55:58;;;;;;;3.27;2.87;;;;;;;;;;5074930;28;20193;-79
2022/08/04 05:58:25;;;;;;;3.17;2.97;;;;;;;;;;5080327;28;20303;-79
2022/08/04 06:00:52;;;;;;;3.30;3.00;;;;;;;;;;5075119;28;20274;-79
2022/08/04 06:03:19;;;;;;;3.20;2.87;;;;;;;;;;5071637;28;20213;-79
2022/08/04 06:05:46;;;;;;;3.37;3.07;;;;;;;;;;5075685;28;20199;-80
2022/08/04 06:08:15;;;;;;;3.67;2.90;;;;;;;;;;5074103;28;20204;-80
2022/08/04 06:10:42;;;;;;;2.80;2.57;;;;;;;;;;5078160;28;20197;-79
2022/08/04 06:13:13;;;;;;;2.70;2.50;;;;;;;;;;5071271;28;20224;-79
2022/08/04 06:15:41;;;;;;;2.80;2.60;;;;;;;;;;5070535;28;20207;-79
2022/08/04 06:18:10;;;;;;;2.83;2.63;;;;;;;;;;5071235;28;20244;-79
2022/08/04 06:20:39;;;;;;;2.50;2.30;;;;;;;;;;5078856;28;20673;-80
2022/08/04 06:23:09;;;;;;;3.60;3.30;;;;;;;;;;5074467;28;20269;-79
2022/08/04 06:25:44;;;;;;;3.70;3.33;;;;;;;;;;5070444;28;20200;-79
2022/08/04 06:28:11;;;;;;;4.73;2.50;;;;;;;;;;5071340;28;20204;-79
2022/08/04 06:30:39;;;;;;;2.60;2.40;;;;;;;;;;5091082;28;20578;-79
2022/08/04 06:33:23;;;;;;;5.60;2.80;;;;;;;;;;5082057;28;20632;-79
2022/08/04 06:35:54;;;;;;;2.73;2.53;;;;;;;;;;5070316;28;20228;-79
2022/08/04 06:38:21;;;;;;;4.50;2.50;;;;;;;;;;5069424;28;20221;-79
2022/08/04 06:40:49;;;;;;;2.63;2.43;;;;;;;;;;5071116;28;20549;-79
2022/08/04 06:43:16;;;;;;;8.67;3.03;;;;;;;;;;5069538;28;20204;-79
2022/08/04 06:45:44;;;;;;;9.00;3.23;;;;;;;;;;5082880;28;20207;-79
2022/08/04 06:48:13;;;;;;;2.37;2.27;;;;;;;;;;5078785;28;20193;-80
2022/08/04 06:50:41;;;;;;;6.70;2.80;;;;;;;;;;5089393;28;20196;-80
2022/08/04 06:53:08;;;;;;;2.40;2.20;;;;;;;;;;5088072;28;20197;-80
2022/08/04 06:55:35;;;;;;;2.70;2.43;;;;;;;;;;5074602;28;20200;-80
2022/08/04 06:58:03;;;;;;;6.00;2.80;;;;;;;;;;5082605;28;20231;-80
2022/08/04 07:00:31;;;;;;;3.83;2.90;;;;;;;;;;5084847;28;20785;-80
2022/08/04 07:02:58;;;;;;;5.10;3.50;;;;;;;;;;5074209;28;20192;-80
2022/08/04 07:05:25;;;;;;;3.37;2.70;;;;;;;;;;5086774;28;20207;-80
2022/08/04 07:07:52;;;;;;;6.97;2.80;;;;;;;;;;5080753;28;20212;-80
2022/08/04 07:10:19;;;;;;;2.33;2.20;;;;;;;;;;5074428;28;20202;-80
2022/08/04 07:12:46;;;;;;;3.27;2.20;;;;;;;;;;5074642;28;20205;-80
2022/08/04 07:15:14;;;;;;;2.70;2.30;;;;;;;;;;5073692;28;20302;-79
2022/08/04 07:17:42;;;;;;;2.23;2.07;;;;;;;;;;5074089;28;20259;-80
2022/08/04 07:20:09;;;;;;;2.30;2.20;;;;;;;;;;5073808;28;20732;-79
2022/08/04 07:22:36;;;;;;;2.43;2.23;;;;;;;;;;5073326;28;20204;-80
2022/08/04 07:25:09;;;;;;;2.20;2.10;;;;;;;;;;5091015;28;20197;-80
2022/08/04 07:27:36;;;;;;;2.47;2.27;;;;;;;;;;5073593;28;20727;-80
2022/08/04 07:30:06;;;;;;;2.27;2.07;;;;;;;;;;5076974;28;20197;-80
2022/08/04 07:32:35;;;;;;;2.28;2.10;;;;;;;;;;5081309;28;20208;-80
2022/08/04 07:35:03;;;;;;;2.05;1.95;;;;;;;;;;5073296;28;20213;-81
2022/08/04 07:37:30;;;;;;;1.92;1.83;;;;;;;;;;5076062;28;20223;-80
2022/08/04 07:39:57;;;;;;;5.85;2.00;;;;;;;;;;5074088;28;20667;-80
2022/08/04 07:42:24;;;;;;;3.15;1.98;;;;;;;;;;5071952;28;20197;-80
2022/08/04 07:44:51;;;;;;;2.05;1.95;;;;;;;;;;5072925;28;20200;-80
2022/08/04 07:47:17;;;;;;;4.70;2.17;;;;;;;;;;5074254;28;20197;-80
2022/08/04 07:49:46;;;;;;;7.43;2.65;;;;;;;;;;5075507;28;20200;-80
2022/08/04 07:52:12;;;;;;;8.07;6.45;;;;;;;;;;5075415;28;20201;-80
2022/08/04 07:54:40;;;;;;;4.90;4.50;;;;;;;;;;5074419;28;20193;-79
2022/08/04 07:57:08;;;;;;;2.53;2.33;;;;;;;;;;5079304;28;20247;-80
2022/08/04 07:59:35;;;;;;;2.70;2.50;;;;;;;;;;5084458;28;20593;-80
2022/08/04 08:02:03;;;;;;;2.50;2.30;;;;;;;;;;5083657;28;20230;-80
2022/08/04 08:04:30;;;;;;;2.40;2.15;;;;;;;;;;5081355;28;20200;-80
2022/08/04 08:06:58;;;;;;;2.80;2.40;;;;;;;;;;5073680;28;20605;-80
2022/08/04 08:09:25;;;;;;;2.20;2.10;;;;;;;;;;5090529;28;20220;-80
2022/08/04 08:11:53;;;;;;;3.65;2.30;;;;;;;;;;5090381;28;20204;-80
2022/08/04 08:14:21;;;;;;;2.95;2.55;;;;;;;;;;5087156;28;20274;-81
2022/08/04 08:16:48;;;;;;;5.85;2.40;;;;;;;;;;5075615;28;20656;-80
2022/08/04 08:19:15;;;;;;;3.05;2.50;;;;;;;;;;5073006;28;20225;-80
2022/08/04 08:21:46;;;;;;;5.22;2.20;;;;;;;;;;5086015;28;20205;-81
2022/08/04 08:24:14;;;;;;;2.90;2.33;;;;;;;;;;5078934;28;20193;-81
2022/08/04 08:26:41;;;;;;;2.22;2.13;;;;;;;;;;5086449;28;20745;-79
2022/08/04 08:29:08;;;;;;;2.63;2.42;;;;;;;;;;5083097;28;20249;-80
2022/08/04 08:31:35;;;;;;;3.00;2.45;;;;;;;;;;5081292;28;20192;-79
2022/08/04 08:34:02;;;;;;;2.38;2.28;;;;;;;;;;5073197;28;20589;-80
2022/08/04 08:36:34;;;;;;;3.10;2.80;;;;;;;;;;5091169;28;20203;-80
2022/08/04 08:39:03;;;;;;;4.43;2.30;;;;;;;;;;5086024;28;20674;-80
2022/08/04 08:41:55;;;;;;;2.30;2.15;;;;;;;;;;5072698;28;20205;-80
2022/08/04 08:44:40;;;;;;;4.35;2.13;;;;;;;;;;5072145;28;20204;-81
2022/08/04 08:47:20;;;;;;;2.70;2.50;;;;;;;;;;5072727;28;20211;-80
2022/08/04 08:49:59;;;;;;;2.55;2.22;;;;;;;;;;5071938;28;20197;-80
2022/08/04 08:52:58;;;;;;;7.20;3.33;;;;;;;;;;5071476;28;20207;-79
2022/08/04 08:55:31;;;;;;;4.43;2.50;;;;;;;;;;5072186;28;20193;-80
2022/08/04 08:58:34;;;;;;;3.47;3.22;;;;;;;;;;5092846;28;20224;-80
2022/08/04 09:01:29;;;;;;;10.38;2.90;;;;;;;;;;5070525;28;20196;-80
2022/08/04 09:04:10;;;;;;;2.60;2.40;;;;;;;;;;5071445;28;20258;-80
2022/08/04 09:07:11;;;;;;;2.90;2.58;;;;;;;;;;5072388;28;20240;-80
2022/08/04 09:10:02;;;;;;;3.00;2.40;;;;;;;;;;5071879;28;20204;-80
2022/08/04 09:12:34;;;;;;;2.03;1.92;;;;;;;;;;5069497;28;20201;-80
2022/08/04 09:15:04;;;;;;;5.28;2.17;;;;;;;;;;5070767;28;20193;-80
2022/08/04 09:17:41;;;;;;;2.35;2.22;;;;;;;;;;5072014;28;20322;-80
2022/08/04 09:20:14;;;;;;;3.88;2.92;;;;;;;;;;5071244;28;20537;-80
2022/08/04 09:22:48;;;;;;;3.05;2.20;;;;;;;;;;5070465;28;20247;-81
2022/08/04 09:25:25;;;;;;;2.53;2.33;;;;;;;;;;5072036;28;20204;-80
2022/08/04 09:27:53;;;;;;;4.15;3.22;;;;;;;;;;5069787;28;20250;-80
2022/08/04 09:30:22;;;;;;;2.10;2.00;;;;;;;;;;5082104;28;20202;-80
2022/08/04 09:32:58;;;;;;;2.53;2.33;;;;;;;;;;5080554;28;20196;-79
2022/08/04 09:35:33;;;;;;;4.65;2.53;;;;;;;;;;5071492;28;20193;-80
2022/08/04 09:38:10;;;;;;;2.53;2.33;;;;;;;;;;5080993;28;20605;-80
2022/08/04 09:40:43;;;;;;;2.58;2.38;;;;;;;;;;5071066;28;20232;-80
2022/08/04 09:43:17;;;;;;;2.50;2.30;;;;;;;;;;5070642;28;20560;-80
2022/08/04 09:45:50;;;;;;;2.85;2.42;;;;;;;;;;5081288;28;20196;-80
2022/08/04 09:48:27;;;;;;;3.00;2.70;;;;;;;;;;5083691;28;20259;-81
2022/08/04 09:50:58;;;;;;;2.50;2.38;;;;;;;;;;5070889;28;20276;-79
2022/08/04 09:53:38;;;;;;;2.58;2.38;;;;;;;;;;5083940;28;20208;-79
2022/08/04 09:56:10;;;;;;;2.65;2.45;;;;;;;;;;5091778;28;20195;-79
2022/08/04 09:58:47;;;;;;;3.35;2.60;;;;;;;;;;5081184;28;20221;-79
2022/08/04 10:01:18;;;;;;;2.60;2.40;;;;;;;;;;5070776;28;20663;-79
2022/08/04 10:03:51;;;;;;;3.45;2.63;;;;;;;;;;5071778;28;20204;-79
2022/08/04 10:06:46;;;;;;;3.03;2.35;;;;;;;;;;5068846;28;20205;-79
2022/08/04 10:09:21;;;;;;;2.33;2.13;;;;;;;;;;5052600;28;20227;-80
2022/08/04 10:12:05;;;;;;;2.70;2.50;;;;;;;;;;5070809;28;20247;-79
2022/08/04 10:14:41;;;;;;;4.00;2.28;;;;;;;;;;5093327;28;20196;-82
2022/08/04 10:17:20;;;;;;;3.00;2.30;;;;;;;;;;5087277;28;20200;-81
2022/08/04 10:19:54;;;;;;;2.15;2.05;;;;;;;;;;5076398;28;20243;-82
2022/08/04 10:22:25;;;;;;;2.65;2.50;;;;;;;;;;5080416;28;20204;-81
2022/08/04 10:24:58;;;;;;;3.28;2.47;;;;;;;;;;5072197;28;20197;-81
2022/08/04 10:27:32;;;;;;;2.03;1.92;;;;;;;;;;5074196;28;20231;-81
2022/08/04 10:30:10;;;;;;;2.15;2.05;;;;;;;;;;5075568;28;20197;-79
2022/08/04 10:32:44;;;;;;;3.95;2.50;;;;;;;;;;5074414;28;20616;-78
2022/08/04 10:35:14;;;;;;;2.40;2.20;;;;;;;;;;5075572;28;20197;-80
2022/08/04 10:37:47;;;;;;;4.32;2.80;;;;;;;;;;5074158;28;20606;-79
2022/08/04 10:43:06;;;;;;;6.35;2.80;;;;;;;;;;5083204;28;20628;-79
2022/08/04 10:45:36;;;;;;;3.15;2.13;;;;;;;;;;5073148;28;20715;-79
2022/08/04 10:48:08;;;;;;;2.72;2.63;;;;;;;;;;5074451;28;20280;-79
2022/08/04 10:50:37;;;;;;;2.55;2.35;;;;;;;;;;5074457;28;20224;-78
2022/08/04 10:53:10;;;;;;;3.60;2.33;;;;;;;;;;5074337;28;20283;-79
2022/08/04 10:55:41;;;;;;;2.47;2.38;;;;;;;;;;5075645;28;20239;-78
2022/08/04 10:58:15;;;;;;;5.95;2.90;;;;;;;;;;5090408;28;20189;-79
2022/08/04 11:00:43;;;;;;;3.45;2.47;;;;;;;;;;5074365;28;20204;-79
2022/08/04 11:03:18;;;;;;;2.10;2.00;;;;;;;;;;5073581;28;20189;-79
2022/08/04 11:05:49;;;;;;;2.53;2.33;;;;;;;;;;5088118;28;20222;-80
2022/08/04 11:08:18;;;;;;;2.63;2.38;;;;;;;;;;5073968;28;20197;-79
2022/08/04 11:10:54;;;;;;;3.47;2.28;;;;;;;;;;5074287;28;20193;-79
2022/08/04 11:13:23;;;;;;;2.70;2.40;;;;;;;;;;5073366;28;20663;-79
2022/08/04 11:15:54;;;;;;;3.03;2.83;;;;;;;;;;5074056;28;20197;-79
2022/08/04 11:18:26;;;;;;;2.45;2.20;;;;;;;;;;5089424;28;20275;-79
2022/08/04 11:20:58;;;;;;;2.58;2.45;;;;;;;;;;5073814;28;20201;-79
2022/08/04 11:23:29;;;;;;;2.30;2.20;;;;;;;;;;5079720;28;20196;-78
2022/08/04 11:26:01;;;;;;;2.67;2.47;;;;;;;;;;5080516;28;20548;-79
2022/08/04 11:28:38;;;;;;;4.72;2.33;;;;;;;;;;5073242;28;20288;-79
2022/08/04 11:31:08;;;;;;;2.70;2.50;;;;;;;;;;5073296;28;20203;-79
2022/08/04 11:33:37;;;;;;;4.28;2.47;;;;;;;;;;5086701;28;20201;-79
2022/08/04 11:36:13;;;;;;;2.60;2.40;;;;;;;;;;5080120;28;20204;-79
2022/08/04 11:38:48;;;;;;;2.20;2.10;;;;;;;;;;5073299;28;20720;-79
2022/08/04 11:41:19;;;;;;;2.60;2.40;;;;;;;;;;5073004;28;20612;-80
2022/08/04 11:43:54;;;;;;;2.70;2.50;;;;;;;;;;5073094;28;20572;-79
2022/08/04 11:46:24;;;;;;;2.42;2.33;;;;;;;;;;5073231;28;20200;-78
2022/08/04 11:48:58;;;;;;;2.67;2.22;;;;;;;;;;5092515;28;20203;-78
2022/08/04 11:51:27;;;;;;;2.40;2.30;;;;;;;;;;5085344;28;20192;-77
2022/08/04 11:53:54;;;;;;;4.70;2.67;;;;;;;;;;5094033;28;20246;-79
2022/08/04 11:56:21;;;;;;;3.00;2.60;;;;;;;;;;5081505;28;20692;-79
2022/08/04 11:58:48;;;;;;;3.28;2.33;;;;;;;;;;5078410;28;20272;-79
2022/08/04 12:01:23;;;;;;;2.58;2.15;;;;;;;;;;5079526;28;20577;-79
2022/08/04 12:04:02;;;;;;;2.30;2.20;;;;;;;;;;5078938;28;20196;-78
2022/08/04 12:06:33;;;;;;;3.83;2.50;;;;;;;;;;5072781;28;20729;-78
2022/08/04 12:09:09;;;;;;;2.10;2.00;;;;;;;;;;5072990;28;20212;-78
2022/08/04 12:11:43;;;;;;;2.25;2.15;;;;;;;;;;5072556;28;20201;-79
2022/08/04 12:14:24;;;;;;;1.70;1.60;;;;;;;;;;5072680;28;20205;-79
2022/08/04 12:16:58;;;;;;;2.35;2.17;;;;;;;;;;5072543;28;20577;-79
2022/08/04 12:19:30;;;;;;;2.50;2.30;;;;;;;;;;5073511;28;20239;-78
2022/08/04 12:22:04;;;;;;;2.30;2.20;;;;;;;;;;5071941;28;20189;-79
2022/08/04 12:24:36;;;;;;;2.47;2.33;;;;;;;;;;5073289;28;20201;-79
2022/08/04 12:27:11;;;;;;;3.05;2.33;;;;;;;;;;5091770;28;20220;-78
2022/08/04 12:29:40;;;;;;;3.92;2.17;;;;;;;;;;5072951;28;20304;-78
2022/08/04 12:32:16;;;;;;;2.10;2.00;;;;;;;;;;5080990;28;20200;-78
2022/08/04 12:34:50;;;;;;;2.28;2.08;;;;;;;;;;5084117;28;20624;-79
2022/08/04 12:37:26;;;;;;;2.72;2.50;;;;;;;;;;5072030;28;20197;-79
2022/08/04 12:39:54;;;;;;;2.35;2.25;;;;;;;;;;5072118;28;20224;-78
2022/08/04 12:42:24;;;;;;;1.92;1.83;;;;;;;;;;5071761;28;20251;-79
2022/08/04 12:44:53;;;;;;;3.67;2.40;;;;;;;;;;5086510;28;20200;-80
2022/08/04 12:47:24;;;;;;;2.97;2.10;;;;;;;;;;5079933;28;20204;-79
2022/08/04 12:49:52;;;;;;;2.88;2.40;;;;;;;;;;5077229;28;20193;-79
2022/08/04 12:52:21;;;;;;;2.55;2.35;;;;;;;;;;5071845;28;20573;-79
2022/08/04 12:54:52;;;;;;;2.00;1.90;;;;;;;;;;5071749;28;20197;-79
2022/08/04 12:57:20;;;;;;;3.03;2.15;;;;;;;;;;5088673;28;20670;-78
2022/08/04 12:59:47;;;;;;;2.63;2.42;;;;;;;;;;5053476;28;20592;-79
2022/08/04 13:02:19;;;;;;;2.10;2.00;;;;;;;;;;5071468;28;20231;-78
2022/08/04 13:04:46;;;;;;;2.28;2.08;;;;;;;;;;5054046;28;20250;-78
2022/08/04 13:07:16;;;;;;;2.10;2.00;;;;;;;;;;5072647;28;20197;-78
2022/08/04 13:09:45;;;;;;;11.68;2.80;;;;;;;;;;5072790;28;20196;-78
2022/08/04 13:12:14;;;;;;;2.53;1.88;;;;;;;;;;5069945;28;20201;-80
2022/08/04 13:14:43;;;;;;;2.30;2.10;;;;;;;;;;5053556;28;20193;-78
2022/08/04 13:17:10;;;;;;;2.53;2.33;;;;;;;;;;5071227;28;20229;-79
2022/08/04 13:19:37;;;;;;;2.60;1.95;;;;;;;;;;5070774;28;20702;-80
2022/08/04 13:22:05;;;;;;;2.40;2.20;;;;;;;;;;5071380;28;20201;-78
2022/08/04 13:24:32;;;;;;;4.28;2.42;;;;;;;;;;5071974;28;20223;-79
2022/08/04 13:27:07;;;;;;;2.50;2.25;;;;;;;;;;5071410;28;20209;-78
2022/08/04 13:29:36;;;;;;;3.50;2.08;;;;;;;;;;5070816;28;20200;-79
2022/08/04 13:32:04;;;;;;;2.15;2.05;;;;;;;;;;5077070;28;20204;-78
2022/08/04 13:34:32;;;;;;;2.30;2.15;;;;;;;;;;5078351;28;20205;-78
2022/08/04 13:37:00;;;;;;;2.20;2.00;;;;;;;;;;5077251;28;20242;-79
2022/08/04 13:39:27;;;;;;;2.10;2.00;;;;;;;;;;5079583;28;20232;-79
2022/08/04 13:41:57;;;;;;;4.07;2.28;;;;;;;;;;5070864;28;20207;-78
2022/08/04 13:44:30;;;;;;;2.33;1.83;;;;;;;;;;5070649;28;20679;-78
2022/08/04 13:47:00;;;;;;;2.25;2.15;;;;;;;;;;5070795;28;20197;-79
2022/08/04 13:49:26;;;;;;;2.00;1.90;;;;;;;;;;5080600;28;20200;-80
2022/08/04 13:51:56;;;;;;;2.50;2.38;;;;;;;;;;5075145;28;20201;-78
2022/08/04 13:54:23;;;;;;;2.17;2.00;;;;;;;;;;5070856;28;20269;-78
2022/08/04 13:56:52;;;;;;;2.30;2.10;;;;;;;;;;5082427;28;20196;-79
2022/08/04 13:59:23;;;;;;;2.03;1.92;;;;;;;;;;5072146;28;20633;-78
2022/08/04 14:02:01;;;;;;;2.55;2.35;;;;;;;;;;5069947;28;20201;-79
2022/08/04 14:04:31;;;;;;;5.38;2.33;;;;;;;;;;5085488;28;20197;-78
2022/08/04 14:07:04;;;;;;;2.25;2.05;;;;;;;;;;5082280;28;20203;-79
2022/08/04 14:09:32;;;;;;;2.30;2.10;;;;;;;;;;5078321;28;20291;-78
2022/08/04 14:12:06;;;;;;;2.55;2.33;;;;;;;;;;5070566;28;20201;-78
2022/08/04 14:14:34;;;;;;;6.13;2.25;;;;;;;;;;5070645;28;20671;-78
2022/08/04 14:17:05;;;;;;;3.13;2.28;;;;;;;;;;5070363;28;20204;-79
2022/08/04 14:19:54;;;;;;;5.05;2.35;;;;;;;;;;5070607;28;20304;-78
2022/08/04 14:22:36;;;;;;;2.08;1.98;;;;;;;;;;5070743;28;20287;-79
2022/08/04 14:25:10;;;;;;;2.45;2.25;;;;;;;;;;5071515;28;20196;-78
2022/08/04 14:27:45;;;;;;;2.20;2.10;;;;;;;;;;5070406;28;20235;-78
2022/08/04 14:30:27;;;;;;;2.33;2.13;;;;;;;;;;5070841;28;20193;-78
2022/08/04 14:32:57;;;;;;;2.22;2.13;;;;;;;;;;5068606;28;20661;-78
2022/08/04 14:35:24;;;;;;;2.40;2.22;;;;;;;;;;5070380;28;20709;-79
2022/08/04 14:37:55;;;;;;;3.42;2.22;;;;;;;;;;5070875;28;20189;-77
2022/08/04 14:40:26;;;;;;;2.45;2.10;;;;;;;;;;5070920;28;20561;-78
2022/08/04 14:42:54;;;;;;;2.22;2.10;;;;;;;;;;5070148;28;20629;-78
2022/08/04 14:45:28;;;;;;;2.85;1.98;;;;;;;;;;5070317;28;20197;-79
2022/08/04 14:47:57;;;;;;;2.75;2.15;;;;;;;;;;5070286;28;20228;-78
2022/08/04 14:50:34;;;;;;;2.63;2.08;;;;;;;;;;5070213;28;20209;-79
2022/08/04 14:53:04;;;;;;;4.03;2.00;;;;;;;;;;5070938;28;20201;-78
2022/08/04 14:55:31;;;;;;;2.13;1.95;;;;;;;;;;5070619;28;20197;-78
2022/08/04 14:57:57;;;;;;;2.10;2.00;;;;;;;;;;5083332;28;20567;-78
2022/08/04 15:00:26;;;;;;;2.63;2.15;;;;;;;;;;5069968;28;20216;-78
2022/08/04 15:02:53;;;;;;;2.55;1.80;;;;;;;;;;5070278;28;20228;-77
2022/08/04 15:05:22;;;;;;;2.38;2.28;;;;;;;;;;5082547;28;20201;-79
2022/08/04 15:07:49;;;;;;;3.45;2.10;;;;;;;;;;5082321;28;20201;-78
2022/08/04 15:10:16;;;;;;;1.77;1.67;;;;;;;;;;5070904;28;20193;-78
2022/08/04 15:12:43;;;;;;;2.75;2.55;;;;;;;;;;5083199;28;20203;-80
2022/08/04 15:15:11;;;;;;;2.50;2.30;;;;;;;;;;5073446;28;20239;-80
2022/08/04 15:17:39;;;;;;;2.53;2.33;;;;;;;;;;5073696;28;20212;-79
2022/08/04 15:20:07;;;;;;;2.17;2.00;;;;;;;;;;5073221;28;20224;-79
2022/08/04 15:22:35;;;;;;;2.30;2.10;;;;;;;;;;5073297;28;20231;-81
2022/08/04 15:25:02;;;;;;;5.25;2.58;;;;;;;;;;5073732;28;20209;-79
2022/08/04 15:27:33;;;;;;;2.45;2.25;;;;;;;;;;5073438;28;20591;-79